Albion, Rhode Island
Current Conditions -  °F | °C
As of 1:55 AM on Monday 24 Nov 2014 (Local Time) from KSFZ Reporting Station
Overcast Overcast  
Wind Chill: 42°   Ceiling: 400
Heat Index: 45°   Visibility: 10mi
Dew Point: 37°   Wind: 5mph
Humidity: 76%   Direction: 130°SE
Pressure: 30.04"   Gusts: NA
Location:  41.95°N, 71.45°W
Report Text: KSFZ 240655Z 13004KT 10SM OVC004 07/03 A3004 RMK AO1
Loading
Personal Weather Stations






























Interactive Weather Map New forecast layout! Learn more

10-Day Weather Forecast

Advertisements
Track Severe Weather on mobile